sensor_id;sensor_type;location;lat;lon;timestamp;P1;durP1;ratioP1;P2;durP2;ratioP2
29240;SDS011;16268;49.880;8.648;2022-08-19T00:01:30;17.48;;;14.73;;
29240;SDS011;16268;49.880;8.648;2022-08-19T00:04:01;16.02;;;14.25;;
29240;SDS011;16268;49.880;8.648;2022-08-19T00:06:31;16.73;;;13.63;;
29240;SDS011;16268;49.880;8.648;2022-08-19T00:08:58;16.83;;;14.38;;
29240;SDS011;16268;49.880;8.648;2022-08-19T00:11:25;17.58;;;13.88;;
29240;SDS011;16268;49.880;8.648;2022-08-19T00:13:52;16.73;;;14.05;;
29240;SDS011;16268;49.880;8.648;2022-08-19T00:16:19;18.13;;;14.95;;
29240;SDS011;16268;49.880;8.648;2022-08-19T00:18:45;18.02;;;14.27;;
29240;SDS011;16268;49.880;8.648;2022-08-19T00:21:12;16.90;;;14.23;;
29240;SDS011;16268;49.880;8.648;2022-08-19T00:23:38;17.13;;;14.35;;
29240;SDS011;16268;49.880;8.648;2022-08-19T00:26:04;16.88;;;14.25;;
29240;SDS011;16268;49.880;8.648;2022-08-19T00:28:31;16.67;;;13.93;;
29240;SDS011;16268;49.880;8.648;2022-08-19T00:30:58;17.95;;;14.75;;
29240;SDS011;16268;49.880;8.648;2022-08-19T00:33:23;17.65;;;14.90;;
29240;SDS011;16268;49.880;8.648;2022-08-19T00:35:49;19.45;;;14.32;;
29240;SDS011;16268;49.880;8.648;2022-08-19T00:38:15;18.20;;;14.80;;
29240;SDS011;16268;49.880;8.648;2022-08-19T00:40:44;17.85;;;13.93;;
29240;SDS011;16268;49.880;8.648;2022-08-19T00:43:11;18.27;;;14.00;;
29240;SDS011;16268;49.880;8.648;2022-08-19T00:45:38;17.52;;;14.50;;
29240;SDS011;16268;49.880;8.648;2022-08-19T00:48:09;17.60;;;14.55;;
29240;SDS011;16268;49.880;8.648;2022-08-19T00:50:35;18.25;;;14.55;;
29240;SDS011;16268;49.880;8.648;2022-08-19T00:53:01;16.73;;;14.13;;
29240;SDS011;16268;49.880;8.648;2022-08-19T00:55:28;18.67;;;14.98;;
29240;SDS011;16268;49.880;8.648;2022-08-19T00:58:00;16.80;;;13.90;;
29240;SDS011;16268;49.880;8.648;2022-08-19T01:00:30;17.88;;;14.45;;
29240;SDS011;16268;49.880;8.648;2022-08-19T01:02:56;16.15;;;13.55;;
29240;SDS011;16268;49.880;8.648;2022-08-19T01:05:25;18.90;;;15.45;;
29240;SDS011;16268;49.880;8.648;2022-08-19T01:07:53;16.80;;;13.20;;
29240;SDS011;16268;49.880;8.648;2022-08-19T01:10:21;17.08;;;14.25;;
29240;SDS011;16268;49.880;8.648;2022-08-19T01:15:17;17.48;;;14.90;;
29240;SDS011;16268;49.880;8.648;2022-08-19T01:17:46;17.27;;;14.23;;
29240;SDS011;16268;49.880;8.648;2022-08-19T01:20:13;20.23;;;14.48;;
29240;SDS011;16268;49.880;8.648;2022-08-19T01:25:12;18.27;;;14.25;;
29240;SDS011;16268;49.880;8.648;2022-08-19T01:27:43;16.30;;;13.85;;
29240;SDS011;16268;49.880;8.648;2022-08-19T01:30:21;16.00;;;13.43;;
29240;SDS011;16268;49.880;8.648;2022-08-19T01:32:50;15.88;;;13.63;;
29240;SDS011;16268;49.880;8.648;2022-08-19T01:35:17;18.23;;;13.70;;
29240;SDS011;16268;49.880;8.648;2022-08-19T01:40:14;16.55;;;13.63;;
29240;SDS011;16268;49.880;8.648;2022-08-19T01:42:41;15.95;;;13.52;;
29240;SDS011;16268;49.880;8.648;2022-08-19T01:45:06;16.98;;;14.15;;
29240;SDS011;16268;49.880;8.648;2022-08-19T01:47:34;17.42;;;13.85;;
29240;SDS011;16268;49.880;8.648;2022-08-19T01:50:00;17.08;;;13.65;;
29240;SDS011;16268;49.880;8.648;2022-08-19T01:52:27;18.55;;;13.57;;
29240;SDS011;16268;49.880;8.648;2022-08-19T01:54:52;20.70;;;14.60;;
29240;SDS011;16268;49.880;8.648;2022-08-19T01:57:18;18.15;;;14.32;;
29240;SDS011;16268;49.880;8.648;2022-08-19T01:59:44;16.70;;;14.20;;
29240;SDS011;16268;49.880;8.648;2022-08-19T02:02:10;17.67;;;13.73;;
29240;SDS011;16268;49.880;8.648;2022-08-19T02:04:36;16.10;;;13.65;;
29240;SDS011;16268;49.880;8.648;2022-08-19T02:07:05;18.92;;;13.77;;
29240;SDS011;16268;49.880;8.648;2022-08-19T02:09:32;18.33;;;14.27;;
29240;SDS011;16268;49.880;8.648;2022-08-19T02:11:58;17.08;;;13.65;;
29240;SDS011;16268;49.880;8.648;2022-08-19T02:14:24;17.65;;;13.65;;
29240;SDS011;16268;49.880;8.648;2022-08-19T02:16:49;16.13;;;13.30;;
29240;SDS011;16268;49.880;8.648;2022-08-19T02:19:15;17.95;;;13.90;;
29240;SDS011;16268;49.880;8.648;2022-08-19T02:21:41;17.60;;;14.48;;
29240;SDS011;16268;49.880;8.648;2022-08-19T02:24:08;16.60;;;14.15;;
29240;SDS011;16268;49.880;8.648;2022-08-19T02:26:34;17.13;;;13.93;;
29240;SDS011;16268;49.880;8.648;2022-08-19T02:28:59;18.70;;;13.82;;
29240;SDS011;16268;49.880;8.648;2022-08-19T02:31:25;15.98;;;14.02;;
29240;SDS011;16268;49.880;8.648;2022-08-19T02:33:52;17.70;;;13.60;;
29240;SDS011;16268;49.880;8.648;2022-08-19T02:36:18;15.82;;;13.70;;
29240;SDS011;16268;49.880;8.648;2022-08-19T02:38:44;16.73;;;13.65;;
29240;SDS011;16268;49.880;8.648;2022-08-19T02:41:17;16.30;;;13.32;;
29240;SDS011;16268;49.880;8.648;2022-08-19T02:43:45;16.13;;;12.60;;
29240;SDS011;16268;49.880;8.648;2022-08-19T02:46:11;16.80;;;13.48;;
29240;SDS011;16268;49.880;8.648;2022-08-19T02:48:43;16.00;;;12.85;;
29240;SDS011;16268;49.880;8.648;2022-08-19T02:51:08;17.20;;;12.80;;
29240;SDS011;16268;49.880;8.648;2022-08-19T02:53:41;14.75;;;12.65;;
29240;SDS011;16268;49.880;8.648;2022-08-19T02:56:07;14.90;;;13.18;;
29240;SDS011;16268;49.880;8.648;2022-08-19T02:58:33;18.63;;;13.05;;
29240;SDS011;16268;49.880;8.648;2022-08-19T03:00:58;17.27;;;13.25;;
29240;SDS011;16268;49.880;8.648;2022-08-19T03:03:24;17.30;;;13.93;;
29240;SDS011;16268;49.880;8.648;2022-08-19T03:05:50;15.93;;;13.48;;
29240;SDS011;16268;49.880;8.648;2022-08-19T03:08:15;18.25;;;13.88;;
29240;SDS011;16268;49.880;8.648;2022-08-19T03:10:42;17.17;;;13.07;;
29240;SDS011;16268;49.880;8.648;2022-08-19T03:13:13;17.83;;;14.23;;
29240;SDS011;16268;49.880;8.648;2022-08-19T03:15:42;17.30;;;13.80;;
29240;SDS011;16268;49.880;8.648;2022-08-19T03:18:09;18.02;;;14.18;;
29240;SDS011;16268;49.880;8.648;2022-08-19T03:20:46;16.42;;;13.05;;
29240;SDS011;16268;49.880;8.648;2022-08-19T03:23:13;16.30;;;13.50;;
29240;SDS011;16268;49.880;8.648;2022-08-19T03:25:42;16.25;;;13.35;;
29240;SDS011;16268;49.880;8.648;2022-08-19T03:28:10;16.67;;;13.65;;
29240;SDS011;16268;49.880;8.648;2022-08-19T03:30:37;16.70;;;13.73;;
29240;SDS011;16268;49.880;8.648;2022-08-19T03:33:05;15.27;;;13.07;;
29240;SDS011;16268;49.880;8.648;2022-08-19T03:35:31;17.63;;;13.55;;
29240;SDS011;16268;49.880;8.648;2022-08-19T03:37:58;15.45;;;12.63;;
29240;SDS011;16268;49.880;8.648;2022-08-19T03:40:24;17.10;;;13.30;;
29240;SDS011;16268;49.880;8.648;2022-08-19T03:42:50;16.58;;;13.98;;
29240;SDS011;16268;49.880;8.648;2022-08-19T03:45:15;16.20;;;12.80;;
29240;SDS011;16268;49.880;8.648;2022-08-19T03:47:42;14.52;;;12.23;;
29240;SDS011;16268;49.880;8.648;2022-08-19T03:50:07;15.02;;;12.05;;
29240;SDS011;16268;49.880;8.648;2022-08-19T03:52:34;16.55;;;12.98;;
29240;SDS011;16268;49.880;8.648;2022-08-19T03:55:00;15.90;;;12.93;;
29240;SDS011;16268;49.880;8.648;2022-08-19T03:57:26;16.30;;;12.98;;
29240;SDS011;16268;49.880;8.648;2022-08-19T03:59:52;15.65;;;12.68;;
29240;SDS011;16268;49.880;8.648;2022-08-19T04:02:18;16.67;;;13.40;;
29240;SDS011;16268;49.880;8.648;2022-08-19T04:04:43;16.25;;;13.05;;
29240;SDS011;16268;49.880;8.648;2022-08-19T04:07:10;16.25;;;13.25;;
29240;SDS011;16268;49.880;8.648;2022-08-19T04:09:39;18.02;;;14.05;;
29240;SDS011;16268;49.880;8.648;2022-08-19T04:12:05;16.67;;;13.15;;
29240;SDS011;16268;49.880;8.648;2022-08-19T04:14:30;17.50;;;13.52;;
29240;SDS011;16268;49.880;8.648;2022-08-19T04:16:56;16.90;;;14.02;;
29240;SDS011;16268;49.880;8.648;2022-08-19T04:19:24;20.02;;;13.75;;
29240;SDS011;16268;49.880;8.648;2022-08-19T04:21:50;16.95;;;14.35;;
29240;SDS011;16268;49.880;8.648;2022-08-19T04:24:19;16.45;;;14.02;;
29240;SDS011;16268;49.880;8.648;2022-08-19T04:26:45;16.25;;;13.57;;
29240;SDS011;16268;49.880;8.648;2022-08-19T04:29:22;16.85;;;14.35;;
29240;SDS011;16268;49.880;8.648;2022-08-19T04:31:50;17.02;;;14.07;;
29240;SDS011;16268;49.880;8.648;2022-08-19T04:34:17;19.92;;;15.32;;
29240;SDS011;16268;49.880;8.648;2022-08-19T04:36:47;17.83;;;14.68;;
29240;SDS011;16268;49.880;8.648;2022-08-19T04:39:16;17.85;;;14.27;;
29240;SDS011;16268;49.880;8.648;2022-08-19T04:41:44;18.40;;;14.38;;
29240;SDS011;16268;49.880;8.648;2022-08-19T04:44:29;17.08;;;13.95;;
29240;SDS011;16268;49.880;8.648;2022-08-19T04:46:56;18.25;;;15.20;;
29240;SDS011;16268;49.880;8.648;2022-08-19T04:49:22;17.33;;;15.32;;
29240;SDS011;16268;49.880;8.648;2022-08-19T04:51:48;18.67;;;14.68;;
29240;SDS011;16268;49.880;8.648;2022-08-19T04:54:18;18.38;;;14.75;;
29240;SDS011;16268;49.880;8.648;2022-08-19T04:56:47;20.55;;;15.07;;
29240;SDS011;16268;49.880;8.648;2022-08-19T04:59:17;19.20;;;14.77;;
29240;SDS011;16268;49.880;8.648;2022-08-19T05:01:43;16.67;;;13.35;;
29240;SDS011;16268;49.880;8.648;2022-08-19T05:04:13;18.13;;;14.20;;
29240;SDS011;16268;49.880;8.648;2022-08-19T05:06:39;17.75;;;13.95;;
29240;SDS011;16268;49.880;8.648;2022-08-19T05:09:04;17.13;;;13.88;;
29240;SDS011;16268;49.880;8.648;2022-08-19T05:11:31;16.73;;;12.48;;
29240;SDS011;16268;49.880;8.648;2022-08-19T05:13:59;17.83;;;13.82;;
29240;SDS011;16268;49.880;8.648;2022-08-19T05:16:26;18.48;;;13.98;;
29240;SDS011;16268;49.880;8.648;2022-08-19T05:18:52;16.35;;;13.07;;
29240;SDS011;16268;49.880;8.648;2022-08-19T05:21:37;16.45;;;13.07;;
29240;SDS011;16268;49.880;8.648;2022-08-19T05:24:23;17.60;;;13.93;;
29240;SDS011;16268;49.880;8.648;2022-08-19T05:26:49;17.52;;;13.10;;
29240;SDS011;16268;49.880;8.648;2022-08-19T05:29:18;16.83;;;13.57;;
29240;SDS011;16268;49.880;8.648;2022-08-19T05:31:46;20.85;;;14.43;;
29240;SDS011;16268;49.880;8.648;2022-08-19T05:34:16;18.23;;;13.73;;
29240;SDS011;16268;49.880;8.648;2022-08-19T05:36:46;17.77;;;13.60;;
29240;SDS011;16268;49.880;8.648;2022-08-19T05:39:17;19.67;;;13.18;;
29240;SDS011;16268;49.880;8.648;2022-08-19T05:41:46;25.13;;;19.48;;
29240;SDS011;16268;49.880;8.648;2022-08-19T05:44:19;34.22;;;24.70;;
29240;SDS011;16268;49.880;8.648;2022-08-19T05:46:46;32.80;;;23.95;;
29240;SDS011;16268;49.880;8.648;2022-08-19T05:49:13;35.97;;;25.60;;
29240;SDS011;16268;49.880;8.648;2022-08-19T05:51:40;19.88;;;13.43;;
29240;SDS011;16268;49.880;8.648;2022-08-19T05:54:07;19.98;;;14.68;;
29240;SDS011;16268;49.880;8.648;2022-08-19T05:56:33;18.52;;;12.63;;
29240;SDS011;16268;49.880;8.648;2022-08-19T05:59:03;22.80;;;15.60;;
29240;SDS011;16268;49.880;8.648;2022-08-19T06:01:35;20.88;;;15.43;;
29240;SDS011;16268;49.880;8.648;2022-08-19T06:04:02;36.58;;;26.90;;
29240;SDS011;16268;49.880;8.648;2022-08-19T06:06:28;16.98;;;11.68;;
29240;SDS011;16268;49.880;8.648;2022-08-19T06:08:53;28.88;;;22.33;;
29240;SDS011;16268;49.880;8.648;2022-08-19T06:14:13;13.60;;;10.27;;
29240;SDS011;16268;49.880;8.648;2022-08-19T06:16:41;15.57;;;11.75;;
29240;SDS011;16268;49.880;8.648;2022-08-19T06:19:09;14.98;;;11.13;;
29240;SDS011;16268;49.880;8.648;2022-08-19T06:21:37;14.43;;;11.53;;
29240;SDS011;16268;49.880;8.648;2022-08-19T06:24:05;14.00;;;10.00;;
29240;SDS011;16268;49.880;8.648;2022-08-19T06:26:33;13.75;;;10.40;;
29240;SDS011;16268;49.880;8.648;2022-08-19T06:29:00;16.80;;;12.88;;
29240;SDS011;16268;49.880;8.648;2022-08-19T06:31:27;12.35;;;9.25;;
29240;SDS011;16268;49.880;8.648;2022-08-19T06:33:53;12.75;;;9.15;;
29240;SDS011;16268;49.880;8.648;2022-08-19T06:36:26;39.40;;;31.58;;
29240;SDS011;16268;49.880;8.648;2022-08-19T06:38:56;15.98;;;12.82;;
29240;SDS011;16268;49.880;8.648;2022-08-19T06:41:22;12.00;;;8.85;;
29240;SDS011;16268;49.880;8.648;2022-08-19T06:43:48;9.70;;;8.40;;
29240;SDS011;16268;49.880;8.648;2022-08-19T06:46:14;11.40;;;8.57;;
29240;SDS011;16268;49.880;8.648;2022-08-19T06:48:42;9.68;;;8.15;;
29240;SDS011;16268;49.880;8.648;2022-08-19T06:51:08;9.95;;;7.78;;
29240;SDS011;16268;49.880;8.648;2022-08-19T06:53:34;11.35;;;8.05;;
29240;SDS011;16268;49.880;8.648;2022-08-19T06:55:59;9.88;;;7.82;;
29240;SDS011;16268;49.880;8.648;2022-08-19T06:58:27;10.05;;;7.82;;
29240;SDS011;16268;49.880;8.648;2022-08-19T07:00:57;10.05;;;8.10;;
29240;SDS011;16268;49.880;8.648;2022-08-19T07:03:26;10.63;;;8.10;;
29240;SDS011;16268;49.880;8.648;2022-08-19T07:05:53;9.13;;;7.88;;
29240;SDS011;16268;49.880;8.648;2022-08-19T07:08:19;9.25;;;6.80;;
29240;SDS011;16268;49.880;8.648;2022-08-19T07:10:45;11.23;;;7.13;;
29240;SDS011;16268;49.880;8.648;2022-08-19T07:13:11;10.13;;;7.22;;
29240;SDS011;16268;49.880;8.648;2022-08-19T07:15:37;9.45;;;6.78;;
29240;SDS011;16268;49.880;8.648;2022-08-19T07:18:03;9.82;;;7.28;;
29240;SDS011;16268;49.880;8.648;2022-08-19T07:20:28;12.13;;;8.82;;
29240;SDS011;16268;49.880;8.648;2022-08-19T07:22:54;10.68;;;7.60;;
29240;SDS011;16268;49.880;8.648;2022-08-19T07:25:19;9.65;;;6.97;;
29240;SDS011;16268;49.880;8.648;2022-08-19T07:27:45;8.95;;;6.60;;
29240;SDS011;16268;49.880;8.648;2022-08-19T07:30:13;9.48;;;6.63;;
29240;SDS011;16268;49.880;8.648;2022-08-19T07:32:39;8.65;;;6.53;;
29240;SDS011;16268;49.880;8.648;2022-08-19T07:35:05;9.20;;;6.68;;
29240;SDS011;16268;49.880;8.648;2022-08-19T07:37:32;8.15;;;6.22;;
29240;SDS011;16268;49.880;8.648;2022-08-19T07:40:00;7.32;;;6.20;;
29240;SDS011;16268;49.880;8.648;2022-08-19T07:42:26;9.35;;;6.63;;
29240;SDS011;16268;49.880;8.648;2022-08-19T07:44:54;9.65;;;6.43;;
29240;SDS011;16268;49.880;8.648;2022-08-19T07:47:19;8.07;;;6.28;;
29240;SDS011;16268;49.880;8.648;2022-08-19T07:49:45;9.45;;;6.20;;
29240;SDS011;16268;49.880;8.648;2022-08-19T07:52:11;10.23;;;6.40;;
29240;SDS011;16268;49.880;8.648;2022-08-19T07:54:37;7.85;;;5.70;;
29240;SDS011;16268;49.880;8.648;2022-08-19T07:57:04;8.13;;;6.15;;
29240;SDS011;16268;49.880;8.648;2022-08-19T07:59:30;7.60;;;5.70;;
29240;SDS011;16268;49.880;8.648;2022-08-19T08:01:56;6.88;;;5.38;;
29240;SDS011;16268;49.880;8.648;2022-08-19T08:04:25;8.05;;;5.65;;
29240;SDS011;16268;49.880;8.648;2022-08-19T08:07:10;7.20;;;5.53;;
29240;SDS011;16268;49.880;8.648;2022-08-19T08:09:54;7.55;;;4.68;;
29240;SDS011;16268;49.880;8.648;2022-08-19T08:12:22;5.65;;;4.30;;
29240;SDS011;16268;49.880;8.648;2022-08-19T08:14:54;7.15;;;4.10;;
29240;SDS011;16268;49.880;8.648;2022-08-19T08:17:23;6.05;;;4.30;;
29240;SDS011;16268;49.880;8.648;2022-08-19T08:19:51;6.38;;;4.63;;
29240;SDS011;16268;49.880;8.648;2022-08-19T08:22:18;6.13;;;4.50;;
29240;SDS011;16268;49.880;8.648;2022-08-19T08:25:04;6.15;;;4.28;;
29240;SDS011;16268;49.880;8.648;2022-08-19T08:27:36;5.82;;;3.60;;
29240;SDS011;16268;49.880;8.648;2022-08-19T08:30:07;5.22;;;2.85;;
29240;SDS011;16268;49.880;8.648;2022-08-19T08:32:40;5.15;;;3.15;;
29240;SDS011;16268;49.880;8.648;2022-08-19T08:35:07;5.45;;;3.55;;
29240;SDS011;16268;49.880;8.648;2022-08-19T08:37:34;5.57;;;3.53;;
29240;SDS011;16268;49.880;8.648;2022-08-19T08:40:39;8.23;;;3.60;;
29240;SDS011;16268;49.880;8.648;2022-08-19T08:42:57;5.57;;;3.10;;
29240;SDS011;16268;49.880;8.648;2022-08-19T08:45:29;5.70;;;3.40;;
29240;SDS011;16268;49.880;8.648;2022-08-19T08:47:57;4.78;;;2.97;;
29240;SDS011;16268;49.880;8.648;2022-08-19T08:53:01;5.88;;;3.28;;
29240;SDS011;16268;49.880;8.648;2022-08-19T08:55:30;5.85;;;3.45;;
29240;SDS011;16268;49.880;8.648;2022-08-19T08:57:59;6.03;;;3.13;;
29240;SDS011;16268;49.880;8.648;2022-08-19T09:00:29;5.82;;;3.50;;
29240;SDS011;16268;49.880;8.648;2022-08-19T09:05:30;5.07;;;2.83;;
29240;SDS011;16268;49.880;8.648;2022-08-19T09:11:06;5.32;;;3.15;;
29240;SDS011;16268;49.880;8.648;2022-08-19T09:16:45;5.07;;;3.08;;
29240;SDS011;16268;49.880;8.648;2022-08-19T09:19:10;4.93;;;2.88;;
29240;SDS011;16268;49.880;8.648;2022-08-19T09:21:36;4.82;;;2.85;;
29240;SDS011;16268;49.880;8.648;2022-08-19T09:24:03;5.55;;;3.10;;
29240;SDS011;16268;49.880;8.648;2022-08-19T09:26:30;4.97;;;3.13;;
29240;SDS011;16268;49.880;8.648;2022-08-19T09:28:59;6.15;;;3.60;;
29240;SDS011;16268;49.880;8.648;2022-08-19T09:31:28;6.50;;;4.20;;
29240;SDS011;16268;49.880;8.648;2022-08-19T09:33:54;5.68;;;3.53;;
29240;SDS011;16268;49.880;8.648;2022-08-19T09:36:24;5.40;;;3.42;;
29240;SDS011;16268;49.880;8.648;2022-08-19T09:38:51;7.22;;;4.18;;
29240;SDS011;16268;49.880;8.648;2022-08-19T09:41:19;7.20;;;4.10;;
29240;SDS011;16268;49.880;8.648;2022-08-19T09:43:47;6.25;;;4.13;;
29240;SDS011;16268;49.880;8.648;2022-08-19T09:46:17;5.70;;;4.20;;
29240;SDS011;16268;49.880;8.648;2022-08-19T09:48:46;7.05;;;4.30;;
29240;SDS011;16268;49.880;8.648;2022-08-19T09:51:14;5.55;;;3.78;;
29240;SDS011;16268;49.880;8.648;2022-08-19T09:53:41;6.78;;;4.38;;
29240;SDS011;16268;49.880;8.648;2022-08-19T09:56:08;7.22;;;4.53;;
29240;SDS011;16268;49.880;8.648;2022-08-19T09:58:35;5.82;;;4.30;;
29240;SDS011;16268;49.880;8.648;2022-08-19T10:01:02;7.30;;;5.28;;
29240;SDS011;16268;49.880;8.648;2022-08-19T10:03:29;7.43;;;4.35;;
29240;SDS011;16268;49.880;8.648;2022-08-19T10:05:57;6.75;;;5.00;;
29240;SDS011;16268;49.880;8.648;2022-08-19T10:08:25;6.85;;;4.75;;
29240;SDS011;16268;49.880;8.648;2022-08-19T10:10:56;8.77;;;4.70;;
29240;SDS011;16268;49.880;8.648;2022-08-19T10:13:23;10.57;;;5.32;;
29240;SDS011;16268;49.880;8.648;2022-08-19T10:15:51;6.05;;;4.18;;
29240;SDS011;16268;49.880;8.648;2022-08-19T10:18:19;8.98;;;5.05;;
29240;SDS011;16268;49.880;8.648;2022-08-19T10:20:46;7.18;;;5.00;;
29240;SDS011;16268;49.880;8.648;2022-08-19T10:23:13;6.90;;;4.63;;
29240;SDS011;16268;49.880;8.648;2022-08-19T10:25:40;5.85;;;4.72;;
29240;SDS011;16268;49.880;8.648;2022-08-19T10:28:06;5.65;;;4.25;;
29240;SDS011;16268;49.880;8.648;2022-08-19T10:30:32;7.55;;;4.45;;
29240;SDS011;16268;49.880;8.648;2022-08-19T10:33:02;8.75;;;4.90;;
29240;SDS011;16268;49.880;8.648;2022-08-19T10:35:28;6.88;;;4.45;;
29240;SDS011;16268;49.880;8.648;2022-08-19T10:37:54;7.63;;;4.63;;
29240;SDS011;16268;49.880;8.648;2022-08-19T10:40:27;5.97;;;4.53;;
29240;SDS011;16268;49.880;8.648;2022-08-19T10:42:54;7.85;;;4.80;;
29240;SDS011;16268;49.880;8.648;2022-08-19T10:45:20;7.38;;;4.38;;
29240;SDS011;16268;49.880;8.648;2022-08-19T10:47:48;7.55;;;5.05;;
29240;SDS011;16268;49.880;8.648;2022-08-19T10:50:13;6.93;;;5.22;;
29240;SDS011;16268;49.880;8.648;2022-08-19T10:53:02;5.88;;;4.68;;
29240;SDS011;16268;49.880;8.648;2022-08-19T10:55:29;9.68;;;4.70;;
29240;SDS011;16268;49.880;8.648;2022-08-19T10:58:14;8.30;;;4.68;;
29240;SDS011;16268;49.880;8.648;2022-08-19T11:00:42;6.72;;;4.32;;
29240;SDS011;16268;49.880;8.648;2022-08-19T11:03:15;6.68;;;4.93;;
29240;SDS011;16268;49.880;8.648;2022-08-19T11:05:40;5.53;;;4.20;;
29240;SDS011;16268;49.880;8.648;2022-08-19T11:08:07;5.95;;;4.60;;
29240;SDS011;16268;49.880;8.648;2022-08-19T11:10:36;8.25;;;4.95;;
29240;SDS011;16268;49.880;8.648;2022-08-19T11:13:06;11.93;;;8.98;;
29240;SDS011;16268;49.880;8.648;2022-08-19T11:15:31;8.00;;;5.70;;
29240;SDS011;16268;49.880;8.648;2022-08-19T11:17:58;7.22;;;5.38;;
29240;SDS011;16268;49.880;8.648;2022-08-19T11:20:23;6.78;;;5.30;;
29240;SDS011;16268;49.880;8.648;2022-08-19T11:22:50;7.88;;;4.30;;
29240;SDS011;16268;49.880;8.648;2022-08-19T11:25:17;5.10;;;3.75;;
29240;SDS011;16268;49.880;8.648;2022-08-19T11:27:43;5.78;;;3.90;;
29240;SDS011;16268;49.880;8.648;2022-08-19T11:30:10;5.22;;;4.03;;
29240;SDS011;16268;49.880;8.648;2022-08-19T11:32:40;6.80;;;4.55;;
29240;SDS011;16268;49.880;8.648;2022-08-19T11:35:06;6.13;;;4.78;;
29240;SDS011;16268;49.880;8.648;2022-08-19T11:37:32;5.25;;;3.92;;
29240;SDS011;16268;49.880;8.648;2022-08-19T11:40:02;7.40;;;4.97;;
29240;SDS011;16268;49.880;8.648;2022-08-19T11:42:28;5.88;;;4.50;;
29240;SDS011;16268;49.880;8.648;2022-08-19T11:45:12;8.07;;;4.30;;
29240;SDS011;16268;49.880;8.648;2022-08-19T11:47:38;8.73;;;4.80;;
29240;SDS011;16268;49.880;8.648;2022-08-19T11:50:04;6.90;;;5.10;;
29240;SDS011;16268;49.880;8.648;2022-08-19T11:52:30;7.60;;;5.32;;
29240;SDS011;16268;49.880;8.648;2022-08-19T11:54:56;6.95;;;5.65;;
29240;SDS011;16268;49.880;8.648;2022-08-19T11:57:21;7.03;;;6.18;;
29240;SDS011;16268;49.880;8.648;2022-08-19T11:59:48;7.22;;;6.50;;
29240;SDS011;16268;49.880;8.648;2022-08-19T12:02:15;6.57;;;5.88;;
29240;SDS011;16268;49.880;8.648;2022-08-19T12:04:40;7.70;;;6.40;;
29240;SDS011;16268;49.880;8.648;2022-08-19T12:07:06;10.27;;;6.32;;
29240;SDS011;16268;49.880;8.648;2022-08-19T12:09:32;7.55;;;6.40;;
29240;SDS011;16268;49.880;8.648;2022-08-19T12:11:59;6.68;;;5.97;;
29240;SDS011;16268;49.880;8.648;2022-08-19T12:14:26;7.97;;;5.97;;
29240;SDS011;16268;49.880;8.648;2022-08-19T12:16:52;6.68;;;6.00;;
29240;SDS011;16268;49.880;8.648;2022-08-19T12:19:18;7.75;;;6.80;;
29240;SDS011;16268;49.880;8.648;2022-08-19T12:21:44;8.18;;;6.28;;
29240;SDS011;16268;49.880;8.648;2022-08-19T12:24:10;9.40;;;6.65;;
29240;SDS011;16268;49.880;8.648;2022-08-19T12:26:36;7.97;;;6.15;;
29240;SDS011;16268;49.880;8.648;2022-08-19T12:29:01;7.63;;;5.65;;
29240;SDS011;16268;49.880;8.648;2022-08-19T12:31:28;7.78;;;5.90;;
29240;SDS011;16268;49.880;8.648;2022-08-19T12:33:54;8.20;;;6.28;;
29240;SDS011;16268;49.880;8.648;2022-08-19T12:36:20;8.20;;;6.45;;
29240;SDS011;16268;49.880;8.648;2022-08-19T12:38:46;8.35;;;6.82;;
29240;SDS011;16268;49.880;8.648;2022-08-19T12:41:13;7.13;;;5.85;;
29240;SDS011;16268;49.880;8.648;2022-08-19T12:43:42;8.25;;;5.35;;
29240;SDS011;16268;49.880;8.648;2022-08-19T12:46:07;5.50;;;4.80;;
29240;SDS011;16268;49.880;8.648;2022-08-19T12:48:34;7.00;;;4.90;;
29240;SDS011;16268;49.880;8.648;2022-08-19T12:51:00;5.18;;;4.22;;
29240;SDS011;16268;49.880;8.648;2022-08-19T12:53:31;5.38;;;4.47;;
29240;SDS011;16268;49.880;8.648;2022-08-19T12:55:57;6.28;;;4.30;;
29240;SDS011;16268;49.880;8.648;2022-08-19T12:58:24;4.68;;;3.53;;
29240;SDS011;16268;49.880;8.648;2022-08-19T13:00:50;4.55;;;3.78;;
29240;SDS011;16268;49.880;8.648;2022-08-19T13:03:16;5.53;;;3.30;;
29240;SDS011;16268;49.880;8.648;2022-08-19T13:05:42;4.55;;;3.17;;
29240;SDS011;16268;49.880;8.648;2022-08-19T13:08:08;7.07;;;3.60;;
29240;SDS011;16268;49.880;8.648;2022-08-19T13:10:34;5.22;;;3.58;;
29240;SDS011;16268;49.880;8.648;2022-08-19T13:13:01;4.88;;;3.60;;
29240;SDS011;16268;49.880;8.648;2022-08-19T13:15:28;5.38;;;3.47;;
29240;SDS011;16268;49.880;8.648;2022-08-19T13:17:57;5.93;;;3.35;;
29240;SDS011;16268;49.880;8.648;2022-08-19T13:20:24;5.78;;;3.42;;
29240;SDS011;16268;49.880;8.648;2022-08-19T13:22:50;4.53;;;3.38;;
29240;SDS011;16268;49.880;8.648;2022-08-19T13:25:16;6.97;;;3.53;;
29240;SDS011;16268;49.880;8.648;2022-08-19T13:27:44;4.80;;;3.72;;
29240;SDS011;16268;49.880;8.648;2022-08-19T13:30:10;6.10;;;3.80;;
29240;SDS011;16268;49.880;8.648;2022-08-19T13:32:56;7.32;;;3.20;;
29240;SDS011;16268;49.880;8.648;2022-08-19T13:35:47;4.47;;;3.13;;
29240;SDS011;16268;49.880;8.648;2022-08-19T13:38:19;6.20;;;3.10;;
29240;SDS011;16268;49.880;8.648;2022-08-19T13:40:46;5.07;;;3.10;;
29240;SDS011;16268;49.880;8.648;2022-08-19T13:43:12;5.00;;;2.90;;
29240;SDS011;16268;49.880;8.648;2022-08-19T13:45:38;5.30;;;3.55;;
29240;SDS011;16268;49.880;8.648;2022-08-19T13:48:07;4.50;;;2.97;;
29240;SDS011;16268;49.880;8.648;2022-08-19T13:50:34;4.60;;;3.17;;
29240;SDS011;16268;49.880;8.648;2022-08-19T13:53:03;4.93;;;2.90;;
29240;SDS011;16268;49.880;8.648;2022-08-19T13:55:29;4.35;;;2.83;;
29240;SDS011;16268;49.880;8.648;2022-08-19T13:57:57;4.30;;;2.80;;
29240;SDS011;16268;49.880;8.648;2022-08-19T14:00:26;4.55;;;3.10;;
29240;SDS011;16268;49.880;8.648;2022-08-19T14:02:55;4.85;;;2.75;;
29240;SDS011;16268;49.880;8.648;2022-08-19T14:05:22;4.63;;;3.10;;
29240;SDS011;16268;49.880;8.648;2022-08-19T14:07:49;4.35;;;2.70;;
29240;SDS011;16268;49.880;8.648;2022-08-19T14:10:15;4.82;;;2.80;;
29240;SDS011;16268;49.880;8.648;2022-08-19T14:12:42;4.45;;;2.88;;
29240;SDS011;16268;49.880;8.648;2022-08-19T14:15:09;3.88;;;2.55;;
29240;SDS011;16268;49.880;8.648;2022-08-19T14:17:37;4.15;;;2.60;;
29240;SDS011;16268;49.880;8.648;2022-08-19T14:20:04;4.07;;;2.65;;
29240;SDS011;16268;49.880;8.648;2022-08-19T14:22:34;4.20;;;2.45;;
29240;SDS011;16268;49.880;8.648;2022-08-19T14:25:00;5.15;;;2.60;;
29240;SDS011;16268;49.880;8.648;2022-08-19T14:27:26;3.53;;;2.45;;
29240;SDS011;16268;49.880;8.648;2022-08-19T14:29:51;3.35;;;2.15;;
29240;SDS011;16268;49.880;8.648;2022-08-19T14:32:17;3.88;;;2.60;;
29240;SDS011;16268;49.880;8.648;2022-08-19T14:34:43;4.55;;;2.60;;
29240;SDS011;16268;49.880;8.648;2022-08-19T14:37:10;4.32;;;2.20;;
29240;SDS011;16268;49.880;8.648;2022-08-19T14:39:38;5.20;;;2.70;;
29240;SDS011;16268;49.880;8.648;2022-08-19T14:42:06;4.45;;;2.50;;
29240;SDS011;16268;49.880;8.648;2022-08-19T14:44:34;4.20;;;2.95;;
29240;SDS011;16268;49.880;8.648;2022-08-19T14:46:59;4.70;;;2.47;;
29240;SDS011;16268;49.880;8.648;2022-08-19T14:49:25;5.40;;;3.03;;
29240;SDS011;16268;49.880;8.648;2022-08-19T14:51:51;3.95;;;2.42;;
29240;SDS011;16268;49.880;8.648;2022-08-19T14:54:16;4.70;;;2.70;;
29240;SDS011;16268;49.880;8.648;2022-08-19T14:56:44;7.15;;;3.30;;
29240;SDS011;16268;49.880;8.648;2022-08-19T14:59:10;5.88;;;3.00;;
29240;SDS011;16268;49.880;8.648;2022-08-19T15:01:35;6.85;;;3.13;;